Thacker, West Virginia
Current Conditions -  °F | °C
As of 6:35 PM on Monday 20 Oct 2014 (Local Time) from KPBX Reporting Station
Overcast Overcast  
Wind Chill: 54°   Ceiling: 10000
Heat Index: 54°   Visibility: 10mi
Dew Point: 50°   Wind: 0mph
Humidity: 86%   Direction: NA
Pressure: 29.95"   Gusts: NA
Location:  37.59°N, 82.13°W
Report Text: KPBX 202235Z AUTO 00000KT 10SM OVC100 12/10 A2995 RMK AO2 T01240102
Loading
Personal Weather Stations






























Interactive Weather Map
Tropical Storm Tracking
New forecast layout! Learn more

10-Day Weather Forecast

Advertisements
Track Severe Weather on mobile